Time;durP1;ratioP1;P1;durP2;ratioP2;P2;SDS_P1;SDS_P2;PMS_P1;PMS_P2;Temp;Humidity;BMP_temperature;BMP_pressure;BME280_temperature;BME280_humidity;BME280_pressure;Samples;Min_cycle;Max_cycle;Signal;HPM_P1;HPM_P2
2021/01/13 00:00:06;;;;;;;5.47;4.38;;;1.90;99.90;;;;;;4973327;28;20027;-72
2021/01/13 00:02:32;;;;;;;9.63;4.57;;;1.90;99.90;;;;;;4973660;28;20053;-71
2021/01/13 00:04:57;;;;;;;6.03;4.82;;;2.00;99.90;;;;;;4973406;28;20026;-72
2021/01/13 00:07:23;;;;;;;7.90;5.00;;;2.00;99.90;;;;;;4972005;28;20073;-72
2021/01/13 00:09:48;;;;;;;15.48;5.60;;;2.10;99.90;;;;;;4974396;28;20038;-73
2021/01/13 00:12:14;;;;;;;8.65;4.70;;;2.20;99.90;;;;;;4973602;28;20030;-72
2021/01/13 00:14:39;;;;;;;9.63;5.28;;;2.20;99.90;;;;;;4972826;28;20599;-73
2021/01/13 00:17:07;;;;;;;6.18;4.07;;;2.30;99.90;;;;;;4985154;28;20022;-73
2021/01/13 00:19:33;;;;;;;5.80;3.97;;;2.30;99.90;;;;;;4991114;28;20023;-73
2021/01/13 00:21:58;;;;;;;6.63;3.88;;;2.40;99.90;;;;;;4990819;28;20029;-74
2021/01/13 00:24:24;;;;;;;9.05;4.72;;;2.40;99.90;;;;;;4986788;28;20058;-74
2021/01/13 00:26:54;;;;;;;4.55;3.17;;;2.40;99.90;;;;;;4986489;28;20035;-71
2021/01/13 00:29:20;;;;;;;5.47;3.85;;;2.40;99.90;;;;;;4985376;28;20546;-71
2021/01/13 00:31:46;;;;;;;6.10;2.85;;;2.40;99.90;;;;;;4989958;28;20037;-73
2021/01/13 00:34:15;;;;;;;10.00;5.30;;;2.40;99.90;;;;;;4992264;28;20034;-81
2021/01/13 00:36:42;;;;;;;6.60;3.67;;;2.40;99.90;;;;;;4990593;28;20019;-80
2021/01/13 00:39:08;;;;;;;6.40;4.00;;;2.40;99.90;;;;;;4987882;28;20039;-73
2021/01/13 00:41:37;;;;;;;7.35;3.30;;;2.40;99.90;;;;;;4981885;28;20247;-72
2021/01/13 00:44:04;;;;;;;4.45;3.38;;;2.40;99.90;;;;;;4983868;28;20070;-73
2021/01/13 00:46:39;;;;;;;5.20;2.92;;;2.50;99.90;;;;;;4983814;28;20087;-72
2021/01/13 00:49:06;;;;;;;4.35;3.22;;;2.50;99.90;;;;;;4987563;28;20023;-71
2021/01/13 00:51:37;;;;;;;8.95;3.45;;;2.50;99.90;;;;;;4988361;28;20031;-72
2021/01/13 00:54:04;;;;;;;6.22;2.72;;;2.50;99.90;;;;;;4987039;28;20023;-73
2021/01/13 00:56:30;;;;;;;3.33;2.58;;;2.60;99.90;;;;;;4988607;28;20031;-73
2021/01/13 00:58:57;;;;;;;3.40;2.05;;;2.60;99.90;;;;;;4977937;28;20035;-72
2021/01/13 01:01:27;;;;;;;3.58;2.35;;;2.60;99.90;;;;;;4974920;28;20027;-72
2021/01/13 01:03:56;;;;;;;6.53;2.23;;;2.60;99.90;;;;;;4975457;28;20039;-72
2021/01/13 01:06:23;;;;;;;6.43;3.15;;;2.70;99.90;;;;;;4976355;28;20109;-74
2021/01/13 01:08:49;;;;;;;5.03;1.98;;;2.70;99.90;;;;;;4970371;28;20115;-73
2021/01/13 01:11:19;;;;;;;4.57;2.10;;;2.70;99.90;;;;;;4973591;28;20038;-72
2021/01/13 01:13:44;;;;;;;4.50;2.58;;;2.70;99.90;;;;;;4973109;28;20431;-72
2021/01/13 01:16:10;;;;;;;7.50;1.55;;;2.70;99.90;;;;;;4972168;28;20081;-72
2021/01/13 01:18:35;;;;;;;5.38;2.15;;;2.70;99.90;;;;;;4973403;28;20019;-73
2021/01/13 01:21:01;;;;;;;5.72;2.40;;;2.70;99.90;;;;;;4972866;28;20098;-73
2021/01/13 01:23:27;;;;;;;5.43;1.80;;;2.70;99.90;;;;;;4972882;28;20078;-73
2021/01/13 01:25:52;;;;;;;3.72;2.40;;;2.70;99.90;;;;;;4971861;28;20526;-73
2021/01/13 01:28:18;;;;;;;3.85;1.70;;;2.80;99.90;;;;;;4973740;28;20451;-71
2021/01/13 01:30:43;;;;;;;3.33;1.55;;;2.80;99.90;;;;;;4976217;28;20434;-72
2021/01/13 01:33:09;;;;;;;6.03;1.80;;;2.80;99.90;;;;;;4976919;28;20059;-73
2021/01/13 01:35:34;;;;;;;2.30;1.83;;;2.80;99.90;;;;;;4976282;28;20085;-72
2021/01/13 01:38:00;;;;;;;7.38;2.05;;;2.80;99.90;;;;;;4974511;28;20073;-72
2021/01/13 01:40:26;;;;;;;7.20;1.92;;;2.80;99.90;;;;;;4976513;28;20031;-71
2021/01/13 01:42:53;;;;;;;3.95;1.70;;;2.80;99.90;;;;;;4976416;28;20170;-72
2021/01/13 01:45:21;;;;;;;5.40;2.00;;;2.80;99.90;;;;;;4976227;28;20134;-73
2021/01/13 01:48:02;;;;;;;5.63;1.95;;;2.80;99.90;;;;;;4975468;28;20081;-72
2021/01/13 01:50:31;;;;;;;4.53;1.85;;;2.80;99.90;;;;;;4976497;28;20677;-74
2021/01/13 01:53:21;;;;;;;2.58;1.98;;;2.80;99.90;;;;;;4975739;28;20070;-72
2021/01/13 01:56:25;;;;;;;5.67;1.80;;;2.80;99.90;;;;;;4968815;28;20027;-72
2021/01/13 01:59:01;;;;;;;2.97;1.63;;;2.80;99.90;;;;;;4974827;28;20050;-73
2021/01/13 02:01:38;;;;;;;3.92;2.20;;;2.80;99.90;;;;;;4977422;28;20447;-72
2021/01/13 02:04:31;;;;;;;7.03;1.92;;;2.80;99.90;;;;;;4977152;28;20058;-72
2021/01/13 02:06:59;;;;;;;4.25;1.80;;;2.90;99.90;;;;;;4976597;28;20062;-74
2021/01/13 02:09:29;;;;;;;3.13;1.80;;;2.80;99.90;;;;;;4977063;28;20023;-72
2021/01/13 02:11:57;;;;;;;5.80;2.03;;;2.80;99.90;;;;;;4975692;28;20047;-70
2021/01/13 02:14:23;;;;;;;5.68;1.98;;;2.80;99.90;;;;;;4959375;28;20027;-72
2021/01/13 02:16:55;;;;;;;4.68;1.77;;;2.80;99.90;;;;;;4961534;28;20540;-71
2021/01/13 02:19:55;;;;;;;9.35;1.88;;;2.80;99.90;;;;;;4976454;28;20023;-73
2021/01/13 02:22:26;;;;;;;7.25;2.05;;;2.80;99.90;;;;;;4962527;28;20410;-72
2021/01/13 02:25:14;;;;;;;3.50;1.70;;;2.80;99.90;;;;;;4974244;28;20066;-71
2021/01/13 02:27:59;;;;;;;8.35;2.00;;;2.80;99.90;;;;;;4967329;28;20042;-72
2021/01/13 02:30:33;;;;;;;4.88;1.50;;;2.80;99.90;;;;;;4974746;28;20025;-72
2021/01/13 02:33:02;;;;;;;3.25;1.50;;;2.90;99.90;;;;;;4974288;28;20030;-72
2021/01/13 02:35:28;;;;;;;5.00;2.10;;;2.90;99.90;;;;;;4974903;28;20046;-72
2021/01/13 02:38:12;;;;;;;1.95;1.35;;;2.90;99.90;;;;;;4974702;28;20027;-72
2021/01/13 02:40:47;;;;;;;6.40;1.80;;;2.90;99.90;;;;;;4973875;28;20026;-72
2021/01/13 02:43:15;;;;;;;7.22;2.15;;;2.90;99.90;;;;;;4974662;28;20046;-72
2021/01/13 02:48:33;;;;;;;2.40;1.60;;;2.90;99.90;;;;;;4974804;28;20033;-73
2021/01/13 02:51:00;;;;;;;5.65;2.08;;;2.90;99.90;;;;;;4974242;28;20042;-73
2021/01/13 02:53:28;;;;;;;5.97;1.67;;;2.90;99.90;;;;;;4973670;28;20062;-72
2021/01/13 02:55:54;;;;;;;4.65;1.48;;;2.90;99.90;;;;;;4976105;28;20026;-72
2021/01/13 02:58:25;;;;;;;4.82;1.60;;;2.90;99.90;;;;;;4976642;28;20414;-73
2021/01/13 03:00:52;;;;;;;9.43;2.63;;;2.80;99.90;;;;;;4977198;28;20015;-72
2021/01/13 03:03:18;;;;;;;7.13;2.00;;;2.80;99.90;;;;;;4974980;28;20600;-72
2021/01/13 03:05:45;;;;;;;2.83;1.80;;;2.90;99.90;;;;;;4973143;28;20038;-73
2021/01/13 03:08:12;;;;;;;3.17;1.50;;;2.90;99.90;;;;;;4976523;28;20043;-72
2021/01/13 03:10:39;;;;;;;4.28;2.30;;;2.90;99.90;;;;;;4975819;28;20018;-72
2021/01/13 03:13:07;;;;;;;2.75;1.77;;;2.80;99.90;;;;;;4975731;28;20046;-71
2021/01/13 03:15:36;;;;;;;3.50;1.65;;;2.80;99.90;;;;;;4974834;28;20034;-72
2021/01/13 03:18:05;;;;;;;3.42;1.58;;;2.80;99.90;;;;;;4975038;28;20110;-73
2021/01/13 03:20:54;;;;;;;6.22;1.70;;;2.80;99.90;;;;;;4974107;28;20026;-72
2021/01/13 03:23:23;;;;;;;3.95;1.80;;;2.80;99.90;;;;;;4973968;28;20046;-72
2021/01/13 03:25:52;;;;;;;2.80;1.70;;;2.80;99.90;;;;;;4973156;28;20050;-72
2021/01/13 03:28:21;;;;;;;5.82;2.45;;;2.80;99.90;;;;;;4974344;28;20026;-72
2021/01/13 03:30:52;;;;;;;8.32;1.75;;;2.80;99.90;;;;;;4974339;28;20121;-72
2021/01/13 03:33:23;;;;;;;;;;;2.80;99.90;;;;;;4975709;28;20042;-72
2021/01/13 03:36:02;;;;;;;2.55;1.67;;;2.80;99.90;;;;;;4977275;28;20362;-71
2021/01/13 03:38:30;;;;;;;6.68;2.00;;;2.80;99.90;;;;;;4978682;28;20031;-72
2021/01/13 03:41:04;;;;;;;3.10;1.95;;;2.80;99.90;;;;;;4978105;28;20122;-72
2021/01/13 03:43:38;;;;;;;6.22;2.60;;;2.80;99.90;;;;;;4979499;28;20034;-71
2021/01/13 03:46:06;;;;;;;5.85;2.83;;;2.80;99.90;;;;;;4984276;28;20026;-71
2021/01/13 03:48:49;;;;;;;5.38;1.63;;;2.80;99.90;;;;;;4983249;28;20035;-71
2021/01/13 03:51:43;;;;;;;3.20;1.60;;;2.80;99.90;;;;;;4981853;28;20033;-73
2021/01/13 03:54:12;;;;;;;6.97;1.80;;;2.80;99.90;;;;;;4981909;28;20097;-71
2021/01/13 03:57:03;;;;;;;8.82;1.83;;;2.80;99.90;;;;;;4979936;28;20026;-72
2021/01/13 03:59:55;;;;;;;3.20;1.33;;;2.80;99.90;;;;;;4988482;28;20027;-73
2021/01/13 04:02:38;;;;;;;7.03;1.83;;;2.80;99.90;;;;;;4954125;28;20128;-72
2021/01/13 04:05:23;;;;;;;4.53;1.80;;;2.80;99.90;;;;;;4973199;28;20033;-72
2021/01/13 04:07:50;;;;;;;5.25;1.80;;;2.80;99.90;;;;;;4967210;28;20518;-73
2021/01/13 04:10:17;;;;;;;5.38;1.95;;;2.80;99.90;;;;;;4972663;28;20058;-73
2021/01/13 04:12:51;;;;;;;5.80;2.22;;;2.70;99.90;;;;;;4973590;28;20089;-72
2021/01/13 04:15:20;;;;;;;10.00;4.10;;;2.70;99.90;;;;;;4972542;28;20147;-73
2021/01/13 04:17:46;;;;;;;4.90;2.03;;;2.70;99.90;;;;;;4972989;28;20162;-74
2021/01/13 04:20:12;;;;;;;3.85;2.50;;;2.70;99.90;;;;;;4973037;28;20372;-72
2021/01/13 04:22:39;;;;;;;6.78;2.40;;;2.60;99.90;;;;;;4967769;28;20027;-72
2021/01/13 04:25:05;;;;;;;6.43;2.67;;;2.60;99.90;;;;;;4972986;28;20050;-73
2021/01/13 04:27:31;;;;;;;4.57;2.55;;;2.50;99.90;;;;;;4973115;28;20054;-72
2021/01/13 04:29:57;;;;;;;4.32;1.90;;;2.50;99.90;;;;;;4973066;28;20033;-72
2021/01/13 04:32:22;;;;;;;6.03;2.35;;;2.50;99.90;;;;;;4973271;28;20034;-72
2021/01/13 04:34:48;;;;;;;3.33;2.05;;;2.50;99.90;;;;;;4972406;28;20019;-72
2021/01/13 04:37:15;;;;;;;5.57;2.10;;;2.50;99.90;;;;;;4971481;28;20029;-71
2021/01/13 04:39:41;;;;;;;5.22;2.75;;;2.40;99.90;;;;;;4972903;28;20023;-72
2021/01/13 04:42:17;;;;;;;4.40;1.90;;;2.40;99.90;;;;;;4972012;28;20038;-72
2021/01/13 04:45:01;;;;;;;5.55;2.10;;;2.40;99.90;;;;;;4971846;28;20483;-72
2021/01/13 04:47:48;;;;;;;4.28;1.80;;;2.30;99.90;;;;;;4972926;28;20043;-71
2021/01/13 04:50:19;;;;;;;6.05;2.15;;;2.20;99.90;;;;;;4971098;28;20023;-72
2021/01/13 04:52:48;;;;;;;5.38;2.42;;;2.20;99.90;;;;;;4972618;28;20023;-72
2021/01/13 04:55:25;;;;;;;3.47;1.73;;;2.10;99.90;;;;;;4972976;28;20053;-72
2021/01/13 04:58:28;;;;;;;6.22;2.40;;;2.00;99.90;;;;;;4977926;28;20023;-72
2021/01/13 05:01:07;;;;;;;3.25;2.00;;;2.00;99.90;;;;;;4977413;28;20030;-71
2021/01/13 05:03:50;;;;;;;4.72;2.03;;;2.00;99.90;;;;;;4983649;28;20078;-71
2021/01/13 05:06:31;;;;;;;3.50;2.30;;;1.90;99.90;;;;;;4979547;28;20035;-72
2021/01/13 05:09:10;;;;;;;3.85;1.98;;;2.00;99.90;;;;;;4984034;28;20053;-72
2021/01/13 05:11:49;;;;;;;7.32;2.47;;;2.00;99.90;;;;;;4983234;28;20035;-73
2021/01/13 05:14:17;;;;;;;5.63;2.55;;;2.10;99.90;;;;;;4982851;28;20022;-72
2021/01/13 05:16:48;;;;;;;4.07;2.08;;;2.10;99.90;;;;;;4982681;28;20027;-71
2021/01/13 05:19:29;;;;;;;5.68;2.15;;;2.10;99.90;;;;;;4981752;28;20505;-71
2021/01/13 05:22:00;;;;;;;4.47;1.88;;;2.20;99.90;;;;;;4979458;28;20086;-72
2021/01/13 05:24:28;;;;;;;5.65;1.98;;;2.10;99.90;;;;;;4980104;28;20054;-73
2021/01/13 05:27:01;;;;;;;7.90;2.72;;;2.10;99.90;;;;;;4979094;28;20031;-72
2021/01/13 05:29:26;;;;;;;3.63;2.13;;;2.10;99.90;;;;;;4980624;28;20137;-71
2021/01/13 05:31:54;;;;;;;3.92;1.75;;;2.10;99.90;;;;;;4980829;28;20070;-72
2021/01/13 05:34:21;;;;;;;4.68;2.33;;;2.10;99.90;;;;;;4979763;28;20031;-72
2021/01/13 05:37:14;;;;;;;7.22;2.67;;;2.00;99.90;;;;;;4977614;28;20070;-71
2021/01/13 05:39:42;;;;;;;4.25;2.00;;;2.00;99.90;;;;;;4972184;28;20023;-72
2021/01/13 05:42:08;;;;;;;3.88;2.08;;;1.90;99.90;;;;;;4976762;28;20035;-72
2021/01/13 05:44:34;;;;;;;5.13;2.33;;;1.90;99.90;;;;;;4979216;28;20113;-71
2021/01/13 05:47:05;;;;;;;4.25;1.85;;;1.80;99.90;;;;;;4978447;28;20510;-71
2021/01/13 05:49:31;;;;;;;8.20;2.30;;;1.80;99.90;;;;;;4976837;28;20034;-71
2021/01/13 05:52:09;;;;;;;6.90;2.35;;;1.80;99.90;;;;;;4979316;28;20030;-72
2021/01/13 05:54:36;;;;;;;7.15;2.45;;;1.80;99.90;;;;;;4979686;28;20030;-72
2021/01/13 05:57:03;;;;;;;5.18;2.60;;;1.70;99.90;;;;;;4980072;28;20105;-72
2021/01/13 05:59:31;;;;;;;5.88;3.13;;;1.70;99.90;;;;;;4977336;28;20451;-73
2021/01/13 06:01:59;;;;;;;4.25;2.10;;;1.60;99.90;;;;;;4979848;28;20542;-71
2021/01/13 06:04:25;;;;;;;5.25;2.15;;;1.60;99.90;;;;;;4978983;28;20046;-72
2021/01/13 06:06:54;;;;;;;4.70;2.33;;;1.50;99.90;;;;;;4975187;28;20038;-72
2021/01/13 06:09:22;;;;;;;3.42;1.90;;;1.50;99.90;;;;;;4975619;28;20588;-72
2021/01/13 06:11:52;;;;;;;3.05;2.17;;;1.50;99.90;;;;;;4975916;28;20031;-73
2021/01/13 06:14:26;;;;;;;5.55;2.50;;;1.40;99.90;;;;;;4974574;28;20041;-74
2021/01/13 06:16:53;;;;;;;7.53;2.97;;;1.40;99.90;;;;;;4974236;28;20019;-71
2021/01/13 06:19:19;;;;;;;4.70;2.22;;;1.30;99.90;;;;;;4973698;28;20502;-72
2021/01/13 06:22:04;;;;;;;5.38;3.58;;;1.30;99.90;;;;;;4976564;28;20110;-73
2021/01/13 06:24:34;;;;;;;11.15;2.97;;;1.30;99.90;;;;;;4974327;28;20030;-75
2021/01/13 06:27:15;;;;;;;10.88;4.07;;;1.20;99.90;;;;;;4975238;28;20481;-73
2021/01/13 06:29:48;;;;;;;5.57;2.47;;;1.20;99.90;;;;;;4968294;28;20022;-72
2021/01/13 06:32:31;;;;;;;5.15;2.40;;;1.30;99.90;;;;;;4984376;28;20033;-72
2021/01/13 06:35:35;;;;;;;4.40;2.45;;;1.20;99.90;;;;;;4980559;28;20026;-73
2021/01/13 06:38:06;;;;;;;12.00;3.15;;;1.20;99.90;;;;;;4950628;28;20050;-72
2021/01/13 06:40:33;;;;;;;5.60;2.78;;;1.10;99.90;;;;;;4982030;28;20027;-71
2021/01/13 06:43:13;;;;;;;9.18;3.30;;;1.20;99.90;;;;;;4980254;28;20038;-74
2021/01/13 06:45:39;;;;;;;5.20;2.83;;;1.20;99.90;;;;;;4979266;28;20038;-73
2021/01/13 06:48:05;;;;;;;3.80;3.20;;;1.30;99.90;;;;;;4982360;28;20041;-73
2021/01/13 06:50:32;;;;;;;3.50;3.08;;;1.30;99.90;;;;;;4981080;28;20037;-72
2021/01/13 06:52:58;;;;;;;8.05;3.47;;;1.20;99.90;;;;;;4980353;28;20062;-71
2021/01/13 06:55:32;;;;;;;9.27;2.85;;;1.20;99.90;;;;;;4982030;28;20061;-73
2021/01/13 06:58:15;;;;;;;6.80;3.55;;;1.20;99.90;;;;;;4976942;28;20038;-70
2021/01/13 07:00:42;;;;;;;8.68;3.33;;;1.20;99.90;;;;;;4973540;28;20061;-72
2021/01/13 07:03:30;;;;;;;6.25;3.50;;;1.30;99.90;;;;;;4977173;28;20039;-72
2021/01/13 07:06:15;;;;;;;8.88;3.47;;;1.30;99.90;;;;;;4975923;28;20029;-72
2021/01/13 07:08:41;;;;;;;9.55;4.10;;;1.30;99.90;;;;;;4973897;28;20039;-74
2021/01/13 07:11:11;;;;;;;4.97;3.00;;;1.30;99.90;;;;;;4974467;28;20394;-73
2021/01/13 07:13:41;;;;;;;7.13;3.65;;;1.20;99.90;;;;;;4974706;28;20038;-72
2021/01/13 07:16:08;;;;;;;9.02;3.80;;;1.20;99.90;;;;;;4974552;28;20042;-72
2021/01/13 07:18:35;;;;;;;5.32;3.45;;;1.20;99.90;;;;;;4973967;28;20035;-75
2021/01/13 07:21:11;;;;;;;5.32;3.17;;;1.20;99.90;;;;;;4973971;28;20023;-72
2021/01/13 07:23:42;;;;;;;7.50;3.33;;;1.10;99.90;;;;;;4974868;28;20072;-73
2021/01/13 07:26:07;;;;;;;;;;;1.20;99.90;;;;;;4974272;28;20035;-71
2021/01/13 07:28:36;;;;;;;13.32;5.60;;;1.20;99.90;;;;;;4975255;28;19924;-73
2021/01/13 07:31:02;;;;;;;8.30;3.80;;;1.20;99.90;;;;;;4974943;28;20045;-72
2021/01/13 07:33:44;;;;;;;5.53;2.95;;;1.20;99.90;;;;;;4973148;28;20031;-73
2021/01/13 07:36:18;;;;;;;5.75;4.05;;;1.20;99.90;;;;;;4972692;28;20394;-72
2021/01/13 07:38:53;;;;;;;5.05;3.50;;;1.30;99.90;;;;;;4970657;28;20551;-73
2021/01/13 07:41:50;;;;;;;8.02;5.10;;;1.30;99.90;;;;;;4971735;28;20065;-73
2021/01/13 07:44:41;;;;;;;8.63;3.85;;;1.30;99.90;;;;;;4970539;28;20047;-71
2021/01/13 07:47:27;;;;;;;;;;;1.30;99.90;;;;;;4976955;23;20468;-74
2021/01/13 07:50:06;;;;;;;6.47;5.03;;;1.30;99.90;;;;;;4943269;29;19969;-74
2021/01/13 07:52:43;;;;;;;5.25;4.03;;;1.30;99.90;;;;;;4936610;29;20115;-74
2021/01/13 07:55:23;;;;;;;6.80;3.08;;;1.30;99.90;;;;;;4944677;29;20050;-74
2021/01/13 07:57:56;;;;;;;9.13;4.63;;;1.40;99.90;;;;;;4926891;29;20020;-75
2021/01/13 08:00:36;;;;;;;10.27;4.05;;;1.50;99.90;;;;;;4909654;29;20050;-74
2021/01/13 08:03:25;;;;;;;10.48;3.60;;;1.50;99.90;;;;;;4926784;29;20064;-74
2021/01/13 08:06:06;;;;;;;6.47;3.72;;;1.60;99.90;;;;;;4909188;29;20071;-73
2021/01/13 08:09:09;;;;;;;7.95;3.13;;;1.70;99.90;;;;;;4906353;29;20389;-73
2021/01/13 08:12:05;;;;;;;5.40;2.75;;;1.70;99.90;;;;;;4922686;29;20475;-73
2021/01/13 08:15:08;;;;;;;6.07;3.03;;;1.80;99.90;;;;;;4915384;29;20032;-73
2021/01/13 08:18:02;;;;;;;7.60;3.60;;;1.90;99.90;;;;;;4921981;29;20024;-74
2021/01/13 08:23:59;;;;;;;4.82;3.47;;;1.90;99.90;;;;;;4927992;29;20038;-73
2021/01/13 08:26:25;;;;;;;4.85;3.08;;;2.00;99.90;;;;;;4928336;29;20028;-74
2021/01/13 08:28:52;;;;;;;4.18;2.22;;;2.10;98.70;;;;;;4913405;29;20020;-73
2021/01/13 08:31:21;;;;;;;7.47;3.42;;;2.10;93.70;;;;;;4917090;29;20051;-74
2021/01/13 08:33:49;;;;;;;7.63;2.05;;;2.20;88.20;;;;;;4922568;29;20557;-73
2021/01/13 08:36:16;;;;;;;8.35;2.67;;;2.20;68.20;;;;;;4923319;29;20032;-74
2021/01/13 08:39:04;;;;;;;8.32;2.55;;;2.20;90.60;;;;;;4932620;29;20392;-74
2021/01/13 08:41:30;;;;;;;2.90;2.42;;;2.20;91.80;;;;;;4914545;29;20523;-73
2021/01/13 08:44:11;;;;;;;6.20;2.35;;;2.30;66.10;;;;;;4926913;29;20023;-73
2021/01/13 08:47:02;;;;;;;4.18;2.40;;;2.30;58.90;;;;;;4930187;29;20035;-74
2021/01/13 08:49:29;;;;;;;7.55;2.70;;;2.30;76.60;;;;;;4906571;29;20552;-73
2021/01/13 08:52:13;;;;;;;5.97;2.95;;;2.30;95.60;;;;;;4921050;29;20039;-73
2021/01/13 08:54:40;;;;;;;9.00;4.00;;;2.30;99.90;;;;;;4942173;29;20028;-73
2021/01/13 08:57:07;;;;;;;11.52;3.63;;;2.30;99.90;;;;;;4917866;29;20091;-73
2021/01/13 08:59:44;;;;;;;6.00;3.83;;;2.30;99.90;;;;;;4909596;29;20032;-74
2021/01/13 09:02:13;;;;;;;10.05;3.63;;;2.30;99.90;;;;;;4904566;29;20028;-73
2021/01/13 09:04:54;;;;;;;8.50;3.70;;;2.30;99.90;;;;;;4910962;29;20100;-75
2021/01/13 09:07:26;;;;;;;6.75;3.53;;;2.40;99.90;;;;;;4912152;29;20088;-75
2021/01/13 09:09:56;;;;;;;5.88;3.33;;;2.50;99.90;;;;;;4917360;29;20060;-74
2021/01/13 09:12:40;;;;;;;;;;;2.50;95.70;;;;;;4938578;29;20051;-75
2021/01/13 09:15:06;;;;;;;5.63;2.72;;;2.60;86.70;;;;;;4938963;29;19957;-74
2021/01/13 09:17:40;;;;;;;4.40;3.10;;;2.70;40.60;;;;;;4936023;29;20021;-74
2021/01/13 09:20:10;;;;;;;7.63;2.92;;;2.80;23.40;;;;;;4950912;29;20016;-74
2021/01/13 09:22:52;;;;;;;8.02;2.85;;;2.80;25.10;;;;;;4944065;29;20357;-74
2021/01/13 09:25:23;;;;;;;7.25;3.08;;;2.90;33.20;;;;;;4939363;29;20036;-75
2021/01/13 09:27:52;;;;;;;4.03;2.85;;;2.90;16.00;;;;;;4926251;29;20031;-75
2021/01/13 09:30:36;;;;;;;7.82;2.60;;;3.00;2.50;;;;;;4952484;29;20024;-75
2021/01/13 09:33:20;;;;;;;5.60;2.88;;;3.00;1.00;;;;;;4931508;29;20024;-78
2021/01/13 09:35:59;;;;;;;5.85;2.60;;;3.10;1.00;;;;;;4944653;28;20031;-77
2021/01/13 09:38:37;;;;;;;5.53;3.13;;;3.10;1.00;;;;;;4936298;29;20055;-78
2021/01/13 09:41:25;;;;;;;4.10;2.67;;;3.10;1.00;;;;;;4942729;28;20057;-76
2021/01/13 09:44:10;;;;;;;5.50;2.70;;;3.20;1.00;;;;;;4939881;29;20027;-77
2021/01/13 09:46:36;;;;;;;5.03;2.70;;;3.30;1.00;;;;;;4933119;29;20016;-76
2021/01/13 09:49:05;;;;;;;3.55;2.15;;;3.40;1.00;;;;;;4939440;28;20024;-75
2021/01/13 09:51:31;;;;;;;7.80;3.83;;;3.50;1.00;;;;;;4948073;29;20024;-76
2021/01/13 09:53:59;;;;;;;4.05;2.25;;;3.50;1.00;;;;;;4938837;28;20023;-75
2021/01/13 09:56:25;;;;;;;5.65;2.00;;;3.50;1.00;;;;;;4949344;28;20016;-77
2021/01/13 09:58:52;;;;;;;8.60;2.03;;;3.50;1.00;;;;;;4961824;28;20055;-76
2021/01/13 10:01:26;;;;;;;4.70;2.08;;;3.60;1.00;;;;;;4935757;29;20020;-77
2021/01/13 10:03:55;;;;;;;7.88;2.20;;;3.60;1.00;;;;;;4934479;28;20028;-76
2021/01/13 10:06:31;;;;;;;8.07;2.75;;;3.60;1.00;;;;;;4934302;28;20063;-77
2021/01/13 10:08:58;;;;;;;5.90;1.83;;;3.60;1.00;;;;;;4946162;28;20135;-76
2021/01/13 10:11:26;;;;;;;5.90;2.03;;;3.60;1.00;;;;;;4939194;29;20024;-76
2021/01/13 10:14:00;;;;;;;6.65;2.20;;;3.70;1.00;;;;;;4941003;28;20031;-76
2021/01/13 10:16:27;;;;;;;5.13;2.17;;;3.80;1.00;;;;;;4943900;28;20087;-77
2021/01/13 10:18:57;;;;;;;5.80;1.80;;;3.90;1.00;;;;;;4936127;28;20023;-76
2021/01/13 10:21:23;;;;;;;6.97;2.63;;;3.80;1.00;;;;;;4953283;28;20043;-75
2021/01/13 10:23:51;;;;;;;4.35;2.00;;;4.00;1.00;;;;;;4955259;28;20024;-76
2021/01/13 10:26:18;;;;;;;11.90;3.05;;;4.00;1.00;;;;;;4942726;28;20020;-76
2021/01/13 10:28:44;;;;;;;3.70;1.90;;;3.90;1.00;;;;;;4926389;28;20040;-75
2021/01/13 10:31:21;;;;;;;4.95;1.88;;;4.00;1.00;;;;;;4942972;28;20024;-76
2021/01/13 10:33:55;;;;;;;5.38;2.30;;;4.00;1.00;;;;;;4926125;29;20064;-76
2021/01/13 10:36:40;;;;;;;6.43;2.45;;;4.10;1.00;;;;;;4923451;29;20035;-76
2021/01/13 10:39:07;;;;;;;8.40;1.88;;;4.10;99.90;;;;;;4951878;28;20026;-78
2021/01/13 10:41:38;;;;;;;3.55;1.70;;;4.20;99.90;;;;;;4948926;28;20031;-76
2021/01/13 10:44:10;;;;;;;4.28;2.00;;;4.20;99.90;;;;;;4935382;28;20055;-78
2021/01/13 10:46:57;;;;;;;7.50;1.80;;;4.30;99.90;;;;;;4945685;29;20050;-77
2021/01/13 10:49:37;;;;;;;8.52;1.70;;;4.30;99.90;;;;;;4942381;28;20016;-77
2021/01/13 10:52:10;;;;;;;10.13;2.90;;;4.40;99.90;;;;;;4950361;28;20051;-75
2021/01/13 10:54:38;;;;;;;5.10;1.77;;;4.40;99.90;;;;;;4932051;29;20024;-76
2021/01/13 10:57:06;;;;;;;5.25;1.92;;;4.50;99.90;;;;;;4944428;28;20043;-76
2021/01/13 10:59:34;;;;;;;4.80;2.20;;;4.60;99.90;;;;;;4930814;29;20015;-76
2021/01/13 11:02:04;;;;;;;3.72;1.95;;;4.70;99.90;;;;;;4953955;28;20008;-75
2021/01/13 11:04:31;;;;;;;7.75;2.78;;;4.80;99.90;;;;;;4923634;29;20209;-75
2021/01/13 11:06:58;;;;;;;3.70;1.77;;;4.80;99.90;;;;;;4935460;29;20544;-75
2021/01/13 11:09:24;;;;;;;4.82;1.98;;;5.00;99.90;;;;;;4930560;29;20034;-74
2021/01/13 11:11:51;;;;;;;5.38;1.70;;;5.00;99.90;;;;;;4910837;29;20036;-76
2021/01/13 11:14:28;;;;;;;4.18;1.38;;;5.10;99.90;;;;;;4911880;29;20029;-76
2021/01/13 11:17:04;;;;;;;2.78;1.63;;;5.10;99.90;;;;;;4912060;29;20024;-75
2021/01/13 11:19:30;;;;;;;2.00;1.05;;;5.30;99.90;;;;;;4935664;29;20102;-76
2021/01/13 11:21:57;;;;;;;5.75;2.42;;;5.40;99.90;;;;;;4955864;28;20032;-75
2021/01/13 11:24:27;;;;;;;3.60;1.33;;;5.40;99.90;;;;;;4931542;29;20091;-75
2021/01/13 11:26:55;;;;;;;7.57;1.40;;;5.30;99.90;;;;;;4926931;29;20092;-75
2021/01/13 11:29:25;;;;;;;4.05;1.67;;;5.20;99.90;;;;;;4921081;29;20060;-75
2021/01/13 11:31:51;;;;;;;4.10;1.40;;;5.30;99.90;;;;;;4934819;29;20035;-77
2021/01/13 11:34:20;;;;;;;3.97;1.40;;;5.30;99.90;;;;;;4929770;29;20054;-75
2021/01/13 11:37:15;;;;;;;4.88;1.70;;;5.20;99.90;;;;;;4909728;29;20028;-75
2021/01/13 11:40:00;;;;;;;3.97;1.50;;;5.10;99.90;;;;;;4898529;29;20051;-76
2021/01/13 11:42:49;;;;;;;3.55;1.35;;;5.10;99.90;;;;;;4927705;29;20020;-76
2021/01/13 11:45:20;;;;;;;2.38;1.13;;;5.00;99.90;;;;;;4936235;29;20027;-75
2021/01/13 11:47:50;;;;;;;10.75;2.38;;;5.10;99.90;;;;;;4934931;29;20106;-76
2021/01/13 11:50:23;;;;;;;5.30;1.63;;;5.10;99.90;;;;;;4926194;29;20043;-75
2021/01/13 11:52:58;;;;;;;4.82;2.03;;;5.20;99.90;;;;;;4932609;29;20054;-74
2021/01/13 11:55:31;;;;;;;1.60;1.20;;;5.30;99.90;;;;;;4932808;29;20047;-73
2021/01/13 11:57:57;;;;;;;6.72;2.55;;;5.40;99.90;;;;;;4931252;29;20029;-75
2021/01/13 12:00:28;;;;;;;6.95;1.27;;;5.40;99.90;;;;;;4918579;29;20036;-76
2021/01/13 12:02:59;;;;;;;4.60;1.42;;;5.30;93.20;;;;;;4919673;29;20035;-76
2021/01/13 12:05:34;;;;;;;7.82;1.15;;;5.20;1.00;;;;;;4902917;29;20096;-76
2021/01/13 12:08:04;;;;;;;5.18;1.00;;;5.10;1.00;;;;;;4915619;29;20028;-76
2021/01/13 12:10:41;;;;;;;7.45;1.38;;;5.30;1.00;;;;;;4939356;28;20091;-77
2021/01/13 12:13:30;;;;;;;4.57;0.95;;;5.30;10.20;;;;;;4922226;28;20100;-76
2021/01/13 12:15:55;;;;;;;1.40;1.00;;;5.20;5.70;;;;;;4922812;29;20043;-76
2021/01/13 12:18:26;;;;;;;1.90;0.80;;;5.30;1.00;;;;;;4940608;28;20044;-77
2021/01/13 12:20:54;;;;;;;2.80;1.10;;;5.30;1.00;;;;;;4919486;29;20026;-75
2021/01/13 12:23:36;;;;;;;2.67;1.00;;;5.40;1.00;;;;;;4951596;28;20075;-76
2021/01/13 12:26:21;;;;;;;3.53;1.63;;;5.30;1.00;;;;;;4953747;28;20035;-75
2021/01/13 12:28:50;;;;;;;1.30;0.88;;;5.20;1.00;;;;;;4939204;29;20020;-76
2021/01/13 12:31:17;;;;;;;2.10;0.75;;;5.00;1.00;;;;;;4939365;28;20080;-74
2021/01/13 12:33:54;;;;;;;3.55;1.02;;;5.00;1.00;;;;;;4939599;28;20341;-77
2021/01/13 12:36:25;;;;;;;2.58;0.70;;;5.10;1.00;;;;;;4943502;28;20025;-76
2021/01/13 12:38:52;;;;;;;2.63;0.75;;;5.10;1.00;;;;;;4929291;28;20375;-76
2021/01/13 12:41:22;;;;;;;3.17;0.80;;;5.20;1.00;;;;;;4945658;28;20056;-75
2021/01/13 12:43:47;;;;;;;5.88;0.80;;;5.10;1.00;;;;;;4923257;29;20012;-76
2021/01/13 12:46:23;;;;;;;2.17;1.15;;;5.20;1.00;;;;;;4934223;28;20039;-76
2021/01/13 12:48:49;;;;;;;3.20;1.35;;;5.10;1.00;;;;;;4946029;28;20034;-75
2021/01/13 12:51:15;;;;;;;0.98;0.82;;;5.30;1.00;;;;;;4951274;28;20036;-75
2021/01/13 12:53:40;;;;;;;4.50;0.88;;;5.30;1.00;;;;;;4952817;28;20083;-75
2021/01/13 12:56:06;;;;;;;4.10;1.13;;;5.30;99.90;;;;;;4943788;28;20035;-74
2021/01/13 12:58:31;;;;;;;5.03;1.30;;;5.10;1.00;;;;;;4932368;28;20093;-75
2021/01/13 13:00:57;;;;;;;2.58;1.45;;;5.20;99.90;;;;;;4947054;28;20027;-75
2021/01/13 13:03:22;;;;;;;1.70;0.50;;;5.20;99.90;;;;;;4933169;28;20041;-74
2021/01/13 13:05:48;;;;;;;2.30;1.10;;;5.20;99.90;;;;;;4944334;28;20067;-75
2021/01/13 13:08:13;;;;;;;1.27;0.88;;;5.20;99.90;;;;;;4942283;29;20067;-74
2021/01/13 13:10:39;;;;;;;4.13;0.70;;;5.20;99.90;;;;;;4948499;29;20032;-74
2021/01/13 13:13:04;;;;;;;2.13;0.52;;;5.30;99.90;;;;;;4933376;29;20088;-75
2021/01/13 13:15:30;;;;;;;6.72;1.70;;;5.10;15.30;;;;;;4919290;29;20032;-74
2021/01/13 13:17:56;;;;;;;6.40;2.70;;;5.10;99.90;;;;;;4903892;29;20493;-74
2021/01/13 13:20:22;;;;;;;1.25;0.77;;;5.10;99.90;;;;;;4913971;29;20028;-75
2021/01/13 13:22:47;;;;;;;1.83;0.63;;;5.20;93.30;;;;;;4916277;29;20027;-73
2021/01/13 13:25:13;;;;;;;3.70;0.90;;;5.30;99.90;;;;;;4934565;29;20060;-74
2021/01/13 13:27:39;;;;;;;0.95;0.88;;;5.20;99.90;;;;;;4933769;29;20050;-73
2021/01/13 13:30:06;;;;;;;4.10;0.70;;;5.20;90.30;;;;;;4932054;29;20020;-73
2021/01/13 13:32:32;;;;;;;2.15;0.75;;;5.30;99.90;;;;;;4924809;29;20036;-74